sensor_id;sensor_type;location;lat;lon;timestamp;P1;durP1;ratioP1;P2;durP2;ratioP2
71814;SDS011;59659;41.520;23.794;2022-11-15T00:00:42;16.23;;;7.03;;
71814;SDS011;59659;41.520;23.794;2022-11-15T00:01:53;13.77;;;7.03;;
71814;SDS011;59659;41.520;23.794;2022-11-15T00:03:05;15.85;;;7.38;;
71814;SDS011;59659;41.520;23.794;2022-11-15T00:04:16;18.92;;;8.25;;
71814;SDS011;59659;41.520;23.794;2022-11-15T00:05:28;13.23;;;6.95;;
71814;SDS011;59659;41.520;23.794;2022-11-15T00:06:39;13.57;;;7.03;;
71814;SDS011;59659;41.520;23.794;2022-11-15T00:07:51;15.25;;;6.90;;
71814;SDS011;59659;41.520;23.794;2022-11-15T00:09:06;13.25;;;7.53;;
71814;SDS011;59659;41.520;23.794;2022-11-15T00:10:18;17.20;;;7.63;;
71814;SDS011;59659;41.520;23.794;2022-11-15T00:11:29;16.05;;;6.78;;
71814;SDS011;59659;41.520;23.794;2022-11-15T00:12:41;12.98;;;7.22;;
71814;SDS011;59659;41.520;23.794;2022-11-15T00:13:56;13.23;;;6.65;;
71814;SDS011;59659;41.520;23.794;2022-11-15T00:15:07;13.73;;;6.80;;
71814;SDS011;59659;41.520;23.794;2022-11-15T00:16:19;12.10;;;6.75;;
71814;SDS011;59659;41.520;23.794;2022-11-15T00:17:30;11.60;;;5.82;;
71814;SDS011;59659;41.520;23.794;2022-11-15T00:18:42;10.00;;;5.68;;
71814;SDS011;59659;41.520;23.794;2022-11-15T00:20:00;14.55;;;6.55;;
71814;SDS011;59659;41.520;23.794;2022-11-15T00:21:12;11.20;;;7.55;;
71814;SDS011;59659;41.520;23.794;2022-11-15T00:22:24;9.23;;;5.95;;
71814;SDS011;59659;41.520;23.794;2022-11-15T00:23:36;18.20;;;6.78;;
71814;SDS011;59659;41.520;23.794;2022-11-15T00:24:48;12.50;;;5.63;;
71814;SDS011;59659;41.520;23.794;2022-11-15T00:25:59;10.30;;;5.82;;
71814;SDS011;59659;41.520;23.794;2022-11-15T00:27:11;10.50;;;5.57;;
71814;SDS011;59659;41.520;23.794;2022-11-15T00:28:23;14.32;;;6.68;;
71814;SDS011;59659;41.520;23.794;2022-11-15T00:29:34;15.70;;;7.22;;
71814;SDS011;59659;41.520;23.794;2022-11-15T00:30:46;13.43;;;6.30;;
71814;SDS011;59659;41.520;23.794;2022-11-15T00:31:57;11.15;;;5.68;;
71814;SDS011;59659;41.520;23.794;2022-11-15T00:33:08;12.48;;;7.90;;
71814;SDS011;59659;41.520;23.794;2022-11-15T00:34:20;12.15;;;6.55;;
71814;SDS011;59659;41.520;23.794;2022-11-15T00:35:32;13.10;;;7.38;;
71814;SDS011;59659;41.520;23.794;2022-11-15T00:36:44;11.30;;;6.57;;
71814;SDS011;59659;41.520;23.794;2022-11-15T00:37:56;13.57;;;6.07;;
71814;SDS011;59659;41.520;23.794;2022-11-15T00:39:07;14.63;;;7.65;;
71814;SDS011;59659;41.520;23.794;2022-11-15T00:40:19;14.55;;;6.45;;
71814;SDS011;59659;41.520;23.794;2022-11-15T00:41:30;12.82;;;6.20;;
71814;SDS011;59659;41.520;23.794;2022-11-15T00:42:42;20.13;;;7.93;;
71814;SDS011;59659;41.520;23.794;2022-11-15T00:43:53;12.55;;;6.85;;
71814;SDS011;59659;41.520;23.794;2022-11-15T00:45:05;12.60;;;7.10;;
71814;SDS011;59659;41.520;23.794;2022-11-15T00:46:16;16.60;;;7.22;;
71814;SDS011;59659;41.520;23.794;2022-11-15T00:47:28;22.08;;;6.72;;
71814;SDS011;59659;41.520;23.794;2022-11-15T00:48:39;16.38;;;7.22;;
71814;SDS011;59659;41.520;23.794;2022-11-15T00:49:51;15.10;;;7.60;;
71814;SDS011;59659;41.520;23.794;2022-11-15T00:51:02;10.35;;;6.20;;
71814;SDS011;59659;41.520;23.794;2022-11-15T00:52:14;17.90;;;7.75;;
71814;SDS011;59659;41.520;23.794;2022-11-15T00:53:25;12.93;;;7.47;;
71814;SDS011;59659;41.520;23.794;2022-11-15T00:54:37;13.27;;;7.10;;
71814;SDS011;59659;41.520;23.794;2022-11-15T00:55:48;17.38;;;7.80;;
71814;SDS011;59659;41.520;23.794;2022-11-15T00:57:00;12.82;;;7.55;;
71814;SDS011;59659;41.520;23.794;2022-11-15T00:58:11;17.33;;;8.98;;
71814;SDS011;59659;41.520;23.794;2022-11-15T00:59:22;17.75;;;8.52;;
71814;SDS011;59659;41.520;23.794;2022-11-15T01:00:34;15.75;;;8.70;;
71814;SDS011;59659;41.520;23.794;2022-11-15T01:01:45;19.20;;;9.48;;
71814;SDS011;59659;41.520;23.794;2022-11-15T01:02:57;23.17;;;10.40;;
71814;SDS011;59659;41.520;23.794;2022-11-15T01:04:08;19.77;;;9.07;;
71814;SDS011;59659;41.520;23.794;2022-11-15T01:05:20;17.13;;;8.10;;
71814;SDS011;59659;41.520;23.794;2022-11-15T01:06:31;17.73;;;7.75;;
71814;SDS011;59659;41.520;23.794;2022-11-15T01:07:43;22.58;;;10.57;;
71814;SDS011;59659;41.520;23.794;2022-11-15T01:08:54;20.65;;;8.80;;
71814;SDS011;59659;41.520;23.794;2022-11-15T01:10:06;16.73;;;8.63;;
71814;SDS011;59659;41.520;23.794;2022-11-15T01:11:17;20.98;;;9.38;;
71814;SDS011;59659;41.520;23.794;2022-11-15T01:12:29;14.07;;;6.15;;
71814;SDS011;59659;41.520;23.794;2022-11-15T01:13:40;21.52;;;9.68;;
71814;SDS011;59659;41.520;23.794;2022-11-15T01:14:52;14.85;;;8.80;;
71814;SDS011;59659;41.520;23.794;2022-11-15T01:16:11;15.77;;;7.50;;
71814;SDS011;59659;41.520;23.794;2022-11-15T01:17:23;13.00;;;7.55;;
71814;SDS011;59659;41.520;23.794;2022-11-15T01:18:35;9.20;;;5.30;;
71814;SDS011;59659;41.520;23.794;2022-11-15T01:19:46;17.45;;;7.85;;
71814;SDS011;59659;41.520;23.794;2022-11-15T01:20:58;11.23;;;6.45;;
71814;SDS011;59659;41.520;23.794;2022-11-15T01:22:09;22.45;;;8.10;;
71814;SDS011;59659;41.520;23.794;2022-11-15T01:23:21;12.98;;;7.25;;
71814;SDS011;59659;41.520;23.794;2022-11-15T01:24:32;14.20;;;7.53;;
71814;SDS011;59659;41.520;23.794;2022-11-15T01:25:44;16.40;;;7.15;;
71814;SDS011;59659;41.520;23.794;2022-11-15T01:26:55;15.73;;;7.93;;
71814;SDS011;59659;41.520;23.794;2022-11-15T01:28:06;12.13;;;6.78;;
71814;SDS011;59659;41.520;23.794;2022-11-15T01:29:18;14.15;;;7.00;;
71814;SDS011;59659;41.520;23.794;2022-11-15T01:30:29;18.73;;;7.10;;
71814;SDS011;59659;41.520;23.794;2022-11-15T01:31:41;13.60;;;6.28;;
71814;SDS011;59659;41.520;23.794;2022-11-15T01:32:52;11.35;;;6.93;;
71814;SDS011;59659;41.520;23.794;2022-11-15T01:34:04;16.85;;;6.63;;
71814;SDS011;59659;41.520;23.794;2022-11-15T01:35:15;12.82;;;6.63;;
71814;SDS011;59659;41.520;23.794;2022-11-15T01:36:27;11.23;;;5.68;;
71814;SDS011;59659;41.520;23.794;2022-11-15T01:37:38;11.18;;;6.47;;
71814;SDS011;59659;41.520;23.794;2022-11-15T01:38:53;18.67;;;7.13;;
71814;SDS011;59659;41.520;23.794;2022-11-15T01:40:05;12.27;;;5.88;;
71814;SDS011;59659;41.520;23.794;2022-11-15T01:41:18;21.00;;;8.63;;
71814;SDS011;59659;41.520;23.794;2022-11-15T01:42:30;18.88;;;9.45;;
71814;SDS011;59659;41.520;23.794;2022-11-15T01:43:41;13.40;;;6.60;;
71814;SDS011;59659;41.520;23.794;2022-11-15T01:44:53;23.33;;;11.60;;
71814;SDS011;59659;41.520;23.794;2022-11-15T01:46:08;13.35;;;6.40;;
71814;SDS011;59659;41.520;23.794;2022-11-15T01:47:33;21.77;;;9.52;;
71814;SDS011;59659;41.520;23.794;2022-11-15T01:48:46;25.92;;;11.85;;
71814;SDS011;59659;41.520;23.794;2022-11-15T01:50:02;29.35;;;13.45;;
71814;SDS011;59659;41.520;23.794;2022-11-15T01:51:16;31.02;;;13.32;;
71814;SDS011;59659;41.520;23.794;2022-11-15T01:52:29;24.20;;;11.05;;
71814;SDS011;59659;41.520;23.794;2022-11-15T01:53:41;37.75;;;14.45;;
71814;SDS011;59659;41.520;23.794;2022-11-15T01:56:19;32.70;;;13.05;;
71814;SDS011;59659;41.520;23.794;2022-11-15T01:57:33;24.40;;;10.52;;
71814;SDS011;59659;41.520;23.794;2022-11-15T01:58:44;15.82;;;8.45;;
71814;SDS011;59659;41.520;23.794;2022-11-15T01:59:56;15.02;;;9.30;;
71814;SDS011;59659;41.520;23.794;2022-11-15T02:01:08;18.33;;;9.60;;
71814;SDS011;59659;41.520;23.794;2022-11-15T02:02:20;20.75;;;10.30;;
71814;SDS011;59659;41.520;23.794;2022-11-15T02:03:34;28.02;;;11.55;;
71814;SDS011;59659;41.520;23.794;2022-11-15T02:04:46;27.02;;;13.00;;
71814;SDS011;59659;41.520;23.794;2022-11-15T02:05:58;22.77;;;11.50;;
71814;SDS011;59659;41.520;23.794;2022-11-15T02:07:10;19.58;;;9.98;;
71814;SDS011;59659;41.520;23.794;2022-11-15T02:08:22;22.95;;;11.40;;
71814;SDS011;59659;41.520;23.794;2022-11-15T02:09:35;29.00;;;11.00;;
71814;SDS011;59659;41.520;23.794;2022-11-15T02:10:47;24.88;;;11.38;;
71814;SDS011;59659;41.520;23.794;2022-11-15T02:11:58;19.75;;;9.13;;
71814;SDS011;59659;41.520;23.794;2022-11-15T02:13:10;12.82;;;7.88;;
71814;SDS011;59659;41.520;23.794;2022-11-15T02:14:21;20.17;;;9.95;;
71814;SDS011;59659;41.520;23.794;2022-11-15T02:15:36;20.80;;;10.13;;
71814;SDS011;59659;41.520;23.794;2022-11-15T02:27:16;20.67;;;8.65;;
71814;SDS011;59659;41.520;23.794;2022-11-15T02:28:48;17.05;;;8.77;;
71814;SDS011;59659;41.520;23.794;2022-11-15T02:31:48;15.45;;;7.40;;
71814;SDS011;59659;41.520;23.794;2022-11-15T02:38:29;16.80;;;8.23;;
71814;SDS011;59659;41.520;23.794;2022-11-15T02:39:52;11.93;;;6.32;;
71814;SDS011;59659;41.520;23.794;2022-11-15T02:41:13;14.75;;;7.68;;
71814;SDS011;59659;41.520;23.794;2022-11-15T02:42:30;12.80;;;7.13;;
71814;SDS011;59659;41.520;23.794;2022-11-15T02:44:08;10.52;;;6.63;;
71814;SDS011;59659;41.520;23.794;2022-11-15T02:45:27;14.95;;;7.35;;
71814;SDS011;59659;41.520;23.794;2022-11-15T02:48:12;16.08;;;9.73;;
71814;SDS011;59659;41.520;23.794;2022-11-15T02:49:25;21.50;;;10.55;;
71814;SDS011;59659;41.520;23.794;2022-11-15T02:50:38;20.38;;;10.55;;
71814;SDS011;59659;41.520;23.794;2022-11-15T02:51:50;31.73;;;11.45;;
71814;SDS011;59659;41.520;23.794;2022-11-15T02:53:02;39.42;;;14.98;;
71814;SDS011;59659;41.520;23.794;2022-11-15T02:54:15;34.75;;;14.13;;
71814;SDS011;59659;41.520;23.794;2022-11-15T02:55:32;30.13;;;12.77;;
71814;SDS011;59659;41.520;23.794;2022-11-15T02:56:43;23.25;;;10.50;;
71814;SDS011;59659;41.520;23.794;2022-11-15T03:00:41;18.65;;;11.18;;
71814;SDS011;59659;41.520;23.794;2022-11-15T03:03:33;24.00;;;11.45;;
71814;SDS011;59659;41.520;23.794;2022-11-15T03:04:52;18.65;;;10.55;;
71814;SDS011;59659;41.520;23.794;2022-11-15T03:06:22;22.88;;;10.35;;
71814;SDS011;59659;41.520;23.794;2022-11-15T03:09:01;24.92;;;9.75;;
71814;SDS011;59659;41.520;23.794;2022-11-15T03:10:18;20.75;;;9.65;;
71814;SDS011;59659;41.520;23.794;2022-11-15T03:11:33;21.40;;;8.40;;
71814;SDS011;59659;41.520;23.794;2022-11-15T03:12:47;17.60;;;7.88;;
71814;SDS011;59659;41.520;23.794;2022-11-15T03:15:32;19.08;;;9.60;;
71814;SDS011;59659;41.520;23.794;2022-11-15T03:17:11;20.35;;;8.27;;
71814;SDS011;59659;41.520;23.794;2022-11-15T03:18:21;15.57;;;6.90;;
71814;SDS011;59659;41.520;23.794;2022-11-15T03:20:48;12.20;;;5.80;;
71814;SDS011;59659;41.520;23.794;2022-11-15T03:22:02;15.13;;;6.68;;
71814;SDS011;59659;41.520;23.794;2022-11-15T03:23:15;15.70;;;6.13;;
71814;SDS011;59659;41.520;23.794;2022-11-15T03:24:27;21.95;;;8.70;;
71814;SDS011;59659;41.520;23.794;2022-11-15T03:25:41;18.02;;;8.02;;
71814;SDS011;59659;41.520;23.794;2022-11-15T03:26:53;19.80;;;10.07;;
71814;SDS011;59659;41.520;23.794;2022-11-15T03:28:06;22.02;;;11.35;;
71814;SDS011;59659;41.520;23.794;2022-11-15T03:29:22;22.08;;;9.82;;
71814;SDS011;59659;41.520;23.794;2022-11-15T03:30:34;17.10;;;8.10;;
71814;SDS011;59659;41.520;23.794;2022-11-15T03:31:48;21.00;;;11.45;;
71814;SDS011;59659;41.520;23.794;2022-11-15T03:33:02;32.38;;;15.63;;
71814;SDS011;59659;41.520;23.794;2022-11-15T03:34:23;30.60;;;11.25;;
71814;SDS011;59659;41.520;23.794;2022-11-15T03:35:37;19.45;;;9.88;;
71814;SDS011;59659;41.520;23.794;2022-11-15T03:36:50;15.13;;;8.23;;
71814;SDS011;59659;41.520;23.794;2022-11-15T03:39:22;18.88;;;9.13;;
71814;SDS011;59659;41.520;23.794;2022-11-15T03:40:38;19.05;;;7.93;;
71814;SDS011;59659;41.520;23.794;2022-11-15T03:42:01;13.05;;;7.38;;
71814;SDS011;59659;41.520;23.794;2022-11-15T03:45:42;14.60;;;7.55;;
71814;SDS011;59659;41.520;23.794;2022-11-15T03:46:57;17.67;;;7.88;;
71814;SDS011;59659;41.520;23.794;2022-11-15T03:48:12;17.63;;;7.30;;
71814;SDS011;59659;41.520;23.794;2022-11-15T03:49:27;15.95;;;7.85;;
71814;SDS011;59659;41.520;23.794;2022-11-15T03:50:40;16.75;;;6.78;;
71814;SDS011;59659;41.520;23.794;2022-11-15T03:51:52;14.02;;;6.50;;
71814;SDS011;59659;41.520;23.794;2022-11-15T03:53:04;13.20;;;6.40;;
71814;SDS011;59659;41.520;23.794;2022-11-15T03:54:16;22.58;;;8.23;;
71814;SDS011;59659;41.520;23.794;2022-11-15T03:55:27;19.48;;;6.97;;
71814;SDS011;59659;41.520;23.794;2022-11-15T03:56:39;20.92;;;6.97;;
71814;SDS011;59659;41.520;23.794;2022-11-15T03:57:51;24.17;;;6.63;;
71814;SDS011;59659;41.520;23.794;2022-11-15T03:59:04;18.58;;;6.93;;
71814;SDS011;59659;41.520;23.794;2022-11-15T04:00:16;15.75;;;7.30;;
71814;SDS011;59659;41.520;23.794;2022-11-15T04:01:27;11.02;;;6.57;;
71814;SDS011;59659;41.520;23.794;2022-11-15T04:02:39;19.67;;;7.28;;
71814;SDS011;59659;41.520;23.794;2022-11-15T04:03:50;29.30;;;7.72;;
71814;SDS011;59659;41.520;23.794;2022-11-15T04:05:02;20.92;;;7.05;;
71814;SDS011;59659;41.520;23.794;2022-11-15T04:06:13;19.77;;;8.40;;
71814;SDS011;59659;41.520;23.794;2022-11-15T04:07:25;13.43;;;7.10;;
71814;SDS011;59659;41.520;23.794;2022-11-15T04:08:37;19.92;;;7.28;;
71814;SDS011;59659;41.520;23.794;2022-11-15T04:09:48;19.80;;;7.28;;
71814;SDS011;59659;41.520;23.794;2022-11-15T04:11:15;12.13;;;7.18;;
71814;SDS011;59659;41.520;23.794;2022-11-15T04:12:26;17.70;;;7.75;;
71814;SDS011;59659;41.520;23.794;2022-11-15T04:13:43;19.67;;;7.35;;
71814;SDS011;59659;41.520;23.794;2022-11-15T04:14:55;16.33;;;7.78;;
71814;SDS011;59659;41.520;23.794;2022-11-15T04:16:18;15.88;;;8.00;;
71814;SDS011;59659;41.520;23.794;2022-11-15T04:17:29;16.25;;;8.30;;
71814;SDS011;59659;41.520;23.794;2022-11-15T04:18:41;27.52;;;8.48;;
71814;SDS011;59659;41.520;23.794;2022-11-15T04:19:52;17.60;;;8.00;;
71814;SDS011;59659;41.520;23.794;2022-11-15T04:21:22;16.08;;;8.30;;
71814;SDS011;59659;41.520;23.794;2022-11-15T04:22:53;22.88;;;7.43;;
71814;SDS011;59659;41.520;23.794;2022-11-15T04:24:23;12.80;;;7.60;;
71814;SDS011;59659;41.520;23.794;2022-11-15T04:25:34;18.73;;;7.65;;
71814;SDS011;59659;41.520;23.794;2022-11-15T04:26:46;17.20;;;8.02;;
71814;SDS011;59659;41.520;23.794;2022-11-15T04:27:57;17.77;;;8.63;;
71814;SDS011;59659;41.520;23.794;2022-11-15T04:29:08;17.50;;;7.47;;
71814;SDS011;59659;41.520;23.794;2022-11-15T04:30:38;23.38;;;9.95;;
71814;SDS011;59659;41.520;23.794;2022-11-15T04:31:50;19.52;;;8.85;;
71814;SDS011;59659;41.520;23.794;2022-11-15T04:33:02;15.93;;;7.70;;
71814;SDS011;59659;41.520;23.794;2022-11-15T04:34:13;32.47;;;11.10;;
71814;SDS011;59659;41.520;23.794;2022-11-15T04:35:25;34.88;;;12.43;;
71814;SDS011;59659;41.520;23.794;2022-11-15T04:36:36;42.78;;;14.63;;
71814;SDS011;59659;41.520;23.794;2022-11-15T04:38:06;46.60;;;18.95;;
71814;SDS011;59659;41.520;23.794;2022-11-15T04:39:18;47.17;;;17.70;;
71814;SDS011;59659;41.520;23.794;2022-11-15T04:40:30;59.25;;;17.58;;
71814;SDS011;59659;41.520;23.794;2022-11-15T04:41:41;40.67;;;15.90;;
71814;SDS011;59659;41.520;23.794;2022-11-15T04:42:53;47.28;;;17.60;;
71814;SDS011;59659;41.520;23.794;2022-11-15T04:44:08;39.70;;;17.83;;
71814;SDS011;59659;41.520;23.794;2022-11-15T04:45:20;36.30;;;17.52;;
71814;SDS011;59659;41.520;23.794;2022-11-15T04:46:32;43.45;;;18.90;;
71814;SDS011;59659;41.520;23.794;2022-11-15T04:47:44;49.83;;;23.00;;
71814;SDS011;59659;41.520;23.794;2022-11-15T04:48:56;56.08;;;21.65;;
71814;SDS011;59659;41.520;23.794;2022-11-15T04:50:09;68.57;;;25.85;;
71814;SDS011;59659;41.520;23.794;2022-11-15T04:51:23;36.08;;;17.83;;
71814;SDS011;59659;41.520;23.794;2022-11-15T04:52:35;57.35;;;22.65;;
71814;SDS011;59659;41.520;23.794;2022-11-15T04:53:46;49.75;;;18.05;;
71814;SDS011;59659;41.520;23.794;2022-11-15T04:54:58;38.72;;;18.08;;
71814;SDS011;59659;41.520;23.794;2022-11-15T04:56:17;37.85;;;16.15;;
71814;SDS011;59659;41.520;23.794;2022-11-15T04:57:28;42.38;;;17.30;;
71814;SDS011;59659;41.520;23.794;2022-11-15T04:58:40;76.03;;;27.33;;
71814;SDS011;59659;41.520;23.794;2022-11-15T04:59:51;64.65;;;26.80;;
71814;SDS011;59659;41.520;23.794;2022-11-15T05:01:13;69.88;;;29.30;;
71814;SDS011;59659;41.520;23.794;2022-11-15T05:02:27;91.50;;;36.88;;
71814;SDS011;59659;41.520;23.794;2022-11-15T05:03:59;110.93;;;45.13;;
71814;SDS011;59659;41.520;23.794;2022-11-15T05:05:29;71.47;;;31.52;;
71814;SDS011;59659;41.520;23.794;2022-11-15T05:06:40;74.53;;;32.85;;
71814;SDS011;59659;41.520;23.794;2022-11-15T05:07:52;51.78;;;20.60;;
71814;SDS011;59659;41.520;23.794;2022-11-15T05:09:04;40.65;;;19.60;;
71814;SDS011;59659;41.520;23.794;2022-11-15T05:10:15;39.20;;;15.93;;
71814;SDS011;59659;41.520;23.794;2022-11-15T05:11:27;37.75;;;16.05;;
71814;SDS011;59659;41.520;23.794;2022-11-15T05:12:38;40.00;;;15.52;;
71814;SDS011;59659;41.520;23.794;2022-11-15T05:13:50;33.72;;;17.63;;
71814;SDS011;59659;41.520;23.794;2022-11-15T05:15:01;52.08;;;22.70;;
71814;SDS011;59659;41.520;23.794;2022-11-15T05:16:13;50.72;;;26.25;;
71814;SDS011;59659;41.520;23.794;2022-11-15T05:17:24;63.55;;;25.83;;
71814;SDS011;59659;41.520;23.794;2022-11-15T05:18:36;59.55;;;25.67;;
71814;SDS011;59659;41.520;23.794;2022-11-15T05:19:49;42.30;;;24.05;;
71814;SDS011;59659;41.520;23.794;2022-11-15T05:21:03;43.03;;;21.35;;
71814;SDS011;59659;41.520;23.794;2022-11-15T05:22:15;40.47;;;22.77;;
71814;SDS011;59659;41.520;23.794;2022-11-15T05:23:26;47.03;;;22.27;;
71814;SDS011;59659;41.520;23.794;2022-11-15T05:24:38;47.38;;;19.13;;
71814;SDS011;59659;41.520;23.794;2022-11-15T05:25:49;44.55;;;20.52;;
71814;SDS011;59659;41.520;23.794;2022-11-15T05:27:02;39.58;;;18.02;;
71814;SDS011;59659;41.520;23.794;2022-11-15T05:28:13;45.28;;;20.95;;
71814;SDS011;59659;41.520;23.794;2022-11-15T05:29:25;41.25;;;19.88;;
71814;SDS011;59659;41.520;23.794;2022-11-15T05:30:36;31.88;;;16.67;;
71814;SDS011;59659;41.520;23.794;2022-11-15T05:31:48;30.45;;;16.77;;
71814;SDS011;59659;41.520;23.794;2022-11-15T05:32:59;35.20;;;15.85;;
71814;SDS011;59659;41.520;23.794;2022-11-15T05:34:11;41.92;;;13.50;;
71814;SDS011;59659;41.520;23.794;2022-11-15T05:35:42;43.80;;;10.68;;
71814;SDS011;59659;41.520;23.794;2022-11-15T05:36:57;12.98;;;8.20;;
71814;SDS011;59659;41.520;23.794;2022-11-15T05:38:09;9.23;;;6.25;;
71814;SDS011;59659;41.520;23.794;2022-11-15T05:39:20;18.58;;;7.50;;
71814;SDS011;59659;41.520;23.794;2022-11-15T05:40:32;23.40;;;7.53;;
71814;SDS011;59659;41.520;23.794;2022-11-15T05:41:44;21.00;;;9.68;;
71814;SDS011;59659;41.520;23.794;2022-11-15T05:42:57;13.82;;;7.30;;
71814;SDS011;59659;41.520;23.794;2022-11-15T05:44:11;17.25;;;8.65;;
71814;SDS011;59659;41.520;23.794;2022-11-15T05:45:23;19.45;;;8.55;;
71814;SDS011;59659;41.520;23.794;2022-11-15T05:46:37;38.00;;;13.45;;
71814;SDS011;59659;41.520;23.794;2022-11-15T05:47:50;25.33;;;10.55;;
71814;SDS011;59659;41.520;23.794;2022-11-15T05:49:03;23.75;;;12.13;;
71814;SDS011;59659;41.520;23.794;2022-11-15T05:50:17;16.08;;;9.20;;
71814;SDS011;59659;41.520;23.794;2022-11-15T05:51:29;20.15;;;11.05;;
71814;SDS011;59659;41.520;23.794;2022-11-15T05:52:41;20.73;;;10.70;;
71814;SDS011;59659;41.520;23.794;2022-11-15T05:53:53;20.55;;;11.77;;
71814;SDS011;59659;41.520;23.794;2022-11-15T05:55:06;28.85;;;12.82;;
71814;SDS011;59659;41.520;23.794;2022-11-15T05:56:18;23.02;;;11.43;;
71814;SDS011;59659;41.520;23.794;2022-11-15T05:57:30;27.75;;;11.40;;
71814;SDS011;59659;41.520;23.794;2022-11-15T05:58:41;22.80;;;9.18;;
71814;SDS011;59659;41.520;23.794;2022-11-15T05:59:53;21.10;;;8.80;;
71814;SDS011;59659;41.520;23.794;2022-11-15T06:01:05;23.65;;;9.02;;
71814;SDS011;59659;41.520;23.794;2022-11-15T06:02:17;17.00;;;9.05;;
71814;SDS011;59659;41.520;23.794;2022-11-15T06:03:28;25.38;;;11.85;;
71814;SDS011;59659;41.520;23.794;2022-11-15T06:04:40;35.13;;;13.82;;
71814;SDS011;59659;41.520;23.794;2022-11-15T06:05:52;21.23;;;11.10;;
71814;SDS011;59659;41.520;23.794;2022-11-15T06:07:03;23.80;;;10.73;;
71814;SDS011;59659;41.520;23.794;2022-11-15T06:08:15;25.60;;;11.82;;
71814;SDS011;59659;41.520;23.794;2022-11-15T06:09:26;20.55;;;11.18;;
71814;SDS011;59659;41.520;23.794;2022-11-15T06:10:38;33.55;;;11.38;;
71814;SDS011;59659;41.520;23.794;2022-11-15T06:11:49;25.10;;;9.65;;
71814;SDS011;59659;41.520;23.794;2022-11-15T06:13:02;32.65;;;11.70;;
71814;SDS011;59659;41.520;23.794;2022-11-15T06:14:13;35.78;;;10.80;;
71814;SDS011;59659;41.520;23.794;2022-11-15T06:15:25;28.25;;;10.98;;
71814;SDS011;59659;41.520;23.794;2022-11-15T06:16:36;18.25;;;8.93;;
71814;SDS011;59659;41.520;23.794;2022-11-15T06:17:48;40.78;;;10.98;;
71814;SDS011;59659;41.520;23.794;2022-11-15T06:18:59;24.38;;;9.70;;
71814;SDS011;59659;41.520;23.794;2022-11-15T06:20:11;42.00;;;10.88;;
71814;SDS011;59659;41.520;23.794;2022-11-15T06:21:22;22.55;;;11.25;;
71814;SDS011;59659;41.520;23.794;2022-11-15T06:22:34;22.45;;;11.52;;
71814;SDS011;59659;41.520;23.794;2022-11-15T06:23:45;31.23;;;14.85;;
71814;SDS011;59659;41.520;23.794;2022-11-15T06:24:57;29.08;;;12.93;;
71814;SDS011;59659;41.520;23.794;2022-11-15T06:26:15;25.27;;;12.95;;
71814;SDS011;59659;41.520;23.794;2022-11-15T06:27:27;23.50;;;14.18;;
71814;SDS011;59659;41.520;23.794;2022-11-15T06:28:38;26.92;;;12.18;;
71814;SDS011;59659;41.520;23.794;2022-11-15T06:29:50;24.35;;;12.93;;
71814;SDS011;59659;41.520;23.794;2022-11-15T06:31:02;32.55;;;13.00;;
71814;SDS011;59659;41.520;23.794;2022-11-15T06:32:13;56.40;;;19.23;;
71814;SDS011;59659;41.520;23.794;2022-11-15T06:33:25;43.60;;;19.27;;
71814;SDS011;59659;41.520;23.794;2022-11-15T06:34:36;56.92;;;21.40;;
71814;SDS011;59659;41.520;23.794;2022-11-15T06:35:48;44.72;;;18.33;;
71814;SDS011;59659;41.520;23.794;2022-11-15T06:36:59;53.20;;;20.33;;
71814;SDS011;59659;41.520;23.794;2022-11-15T06:38:11;62.92;;;33.15;;
71814;SDS011;59659;41.520;23.794;2022-11-15T06:39:22;41.42;;;16.33;;
71814;SDS011;59659;41.520;23.794;2022-11-15T06:40:37;28.55;;;13.02;;
71814;SDS011;59659;41.520;23.794;2022-11-15T06:41:49;22.63;;;11.63;;
71814;SDS011;59659;41.520;23.794;2022-11-15T06:43:00;24.58;;;9.43;;
71814;SDS011;59659;41.520;23.794;2022-11-15T06:44:12;42.75;;;22.55;;
71814;SDS011;59659;41.520;23.794;2022-11-15T06:45:23;17.67;;;10.20;;
71814;SDS011;59659;41.520;23.794;2022-11-15T06:46:35;16.77;;;9.10;;
71814;SDS011;59659;41.520;23.794;2022-11-15T06:47:49;29.55;;;10.65;;
71814;SDS011;59659;41.520;23.794;2022-11-15T06:49:01;34.58;;;10.63;;
71814;SDS011;59659;41.520;23.794;2022-11-15T06:50:19;39.15;;;14.80;;
71814;SDS011;59659;41.520;23.794;2022-11-15T06:51:31;46.22;;;20.05;;
71814;SDS011;59659;41.520;23.794;2022-11-15T06:52:42;48.88;;;21.05;;
71814;SDS011;59659;41.520;23.794;2022-11-15T06:53:54;39.15;;;19.13;;
71814;SDS011;59659;41.520;23.794;2022-11-15T06:55:05;30.98;;;14.57;;
71814;SDS011;59659;41.520;23.794;2022-11-15T06:56:17;32.90;;;12.73;;
71814;SDS011;59659;41.520;23.794;2022-11-15T06:57:29;23.45;;;11.45;;
71814;SDS011;59659;41.520;23.794;2022-11-15T06:58:40;25.15;;;11.70;;
71814;SDS011;59659;41.520;23.794;2022-11-15T06:59:52;23.65;;;11.32;;
71814;SDS011;59659;41.520;23.794;2022-11-15T07:01:04;22.88;;;13.10;;
71814;SDS011;59659;41.520;23.794;2022-11-15T07:02:16;21.70;;;8.98;;
71814;SDS011;59659;41.520;23.794;2022-11-15T07:03:28;19.05;;;9.27;;
71814;SDS011;59659;41.520;23.794;2022-11-15T07:04:40;20.95;;;10.70;;
71814;SDS011;59659;41.520;23.794;2022-11-15T07:05:52;27.67;;;11.57;;
71814;SDS011;59659;41.520;23.794;2022-11-15T07:07:04;23.27;;;10.50;;
71814;SDS011;59659;41.520;23.794;2022-11-15T07:08:16;19.08;;;10.02;;
71814;SDS011;59659;41.520;23.794;2022-11-15T07:09:27;21.08;;;10.82;;
71814;SDS011;59659;41.520;23.794;2022-11-15T07:10:39;35.65;;;12.48;;
71814;SDS011;59659;41.520;23.794;2022-11-15T07:11:50;34.03;;;14.60;;
71814;SDS011;59659;41.520;23.794;2022-11-15T07:13:02;33.80;;;16.73;;
71814;SDS011;59659;41.520;23.794;2022-11-15T07:14:13;37.85;;;16.48;;
71814;SDS011;59659;41.520;23.794;2022-11-15T07:15:25;43.10;;;18.42;;
71814;SDS011;59659;41.520;23.794;2022-11-15T07:16:37;45.33;;;18.45;;
71814;SDS011;59659;41.520;23.794;2022-11-15T07:17:48;43.95;;;18.92;;
71814;SDS011;59659;41.520;23.794;2022-11-15T07:19:00;61.75;;;22.00;;
71814;SDS011;59659;41.520;23.794;2022-11-15T07:20:12;52.00;;;21.48;;
71814;SDS011;59659;41.520;23.794;2022-11-15T07:21:24;47.58;;;21.42;;
71814;SDS011;59659;41.520;23.794;2022-11-15T07:22:38;54.00;;;24.27;;
71814;SDS011;59659;41.520;23.794;2022-11-15T07:23:49;60.17;;;23.92;;
71814;SDS011;59659;41.520;23.794;2022-11-15T07:25:00;52.83;;;24.33;;
71814;SDS011;59659;41.520;23.794;2022-11-15T07:26:12;63.65;;;24.98;;
71814;SDS011;59659;41.520;23.794;2022-11-15T07:27:24;64.70;;;26.60;;
71814;SDS011;59659;41.520;23.794;2022-11-15T07:28:35;54.72;;;21.55;;
71814;SDS011;59659;41.520;23.794;2022-11-15T07:29:47;58.95;;;24.25;;
71814;SDS011;59659;41.520;23.794;2022-11-15T07:31:02;47.42;;;25.35;;
71814;SDS011;59659;41.520;23.794;2022-11-15T07:32:13;50.30;;;23.50;;
71814;SDS011;59659;41.520;23.794;2022-11-15T07:33:25;49.40;;;24.67;;
71814;SDS011;59659;41.520;23.794;2022-11-15T07:34:36;59.03;;;22.95;;
71814;SDS011;59659;41.520;23.794;2022-11-15T07:35:48;47.65;;;22.13;;
71814;SDS011;59659;41.520;23.794;2022-11-15T07:36:59;49.78;;;24.50;;
71814;SDS011;59659;41.520;23.794;2022-11-15T07:38:11;40.25;;;20.95;;